sensor_id;sensor_type;location;lat;lon;timestamp;pressure;altitude;pressure_sealevel;temperature;humidity
68329;BME280;55182;56.864;60.554;2023-12-22T00:00:21;74792.69;;;-143.60;82.90
68329;BME280;55182;56.864;60.554;2023-12-22T00:02:46;74784.66;;;-143.60;82.59
68329;BME280;55182;56.864;60.554;2023-12-22T00:05:12;74792.69;;;-143.60;82.69
68329;BME280;55182;56.864;60.554;2023-12-22T00:07:37;74800.72;;;-143.60;82.77
68329;BME280;55182;56.864;60.554;2023-12-22T00:10:03;74804.75;;;-143.60;82.86
68329;BME280;55182;56.864;60.554;2023-12-22T00:12:28;74816.78;;;-143.60;82.84
68329;BME280;55182;56.864;60.554;2023-12-22T00:14:54;74814.78;;;-143.60;82.29
68329;BME280;55182;56.864;60.554;2023-12-22T00:17:19;74812.78;;;-143.60;82.36
68329;BME280;55182;56.864;60.554;2023-12-22T00:19:45;74824.81;;;-143.60;82.27
68329;BME280;55182;56.864;60.554;2023-12-22T00:22:10;74818.78;;;-143.60;81.88
68329;BME280;55182;56.864;60.554;2023-12-22T00:24:36;74816.78;;;-143.60;82.02
68329;BME280;55182;56.864;60.554;2023-12-22T00:27:01;74812.78;;;-143.60;81.72
68329;BME280;55182;56.864;60.554;2023-12-22T00:29:26;74820.81;;;-143.60;81.40
68329;BME280;55182;56.864;60.554;2023-12-22T00:31:52;74822.81;;;-143.60;81.27
68329;BME280;55182;56.864;60.554;2023-12-22T00:34:17;74808.75;;;-143.60;80.81
68329;BME280;55182;56.864;60.554;2023-12-22T00:36:43;74810.75;;;-143.60;80.83
68329;BME280;55182;56.864;60.554;2023-12-22T00:39:08;74814.78;;;-143.60;80.77
68329;BME280;55182;56.864;60.554;2023-12-22T00:41:33;74818.78;;;-143.60;80.87
68329;BME280;55182;56.864;60.554;2023-12-22T00:43:59;74826.84;;;-143.60;80.61
68329;BME280;55182;56.864;60.554;2023-12-22T00:46:24;74824.81;;;-143.60;80.83
68329;BME280;55182;56.864;60.554;2023-12-22T00:48:50;74836.88;;;-143.60;80.97
68329;BME280;55182;56.864;60.554;2023-12-22T00:51:15;74840.91;;;-143.60;80.96
68329;BME280;55182;56.864;60.554;2023-12-22T00:53:41;74838.88;;;-143.60;81.05
68329;BME280;55182;56.864;60.554;2023-12-22T00:56:06;74836.88;;;-143.60;81.54
68329;BME280;55182;56.864;60.554;2023-12-22T00:58:31;74844.91;;;-143.60;81.91
68329;BME280;55182;56.864;60.554;2023-12-22T01:00:57;74846.91;;;-143.60;81.88
68329;BME280;55182;56.864;60.554;2023-12-22T01:03:23;74852.94;;;-143.60;82.20
68329;BME280;55182;56.864;60.554;2023-12-22T01:05:48;74856.97;;;-143.60;82.45
68329;BME280;55182;56.864;60.554;2023-12-22T01:08:14;74856.97;;;-143.60;82.38
68329;BME280;55182;56.864;60.554;2023-12-22T01:10:39;74865.00;;;-143.60;82.59
68329;BME280;55182;56.864;60.554;2023-12-22T01:13:05;74860.97;;;-143.60;82.08
68329;BME280;55182;56.864;60.554;2023-12-22T01:15:30;74860.97;;;-143.60;81.70
68329;BME280;55182;56.864;60.554;2023-12-22T01:17:56;74869.03;;;-143.60;81.60
68329;BME280;55182;56.864;60.554;2023-12-22T01:20:21;74877.06;;;-143.60;81.54
68329;BME280;55182;56.864;60.554;2023-12-22T01:22:46;74869.03;;;-143.60;81.59
68329;BME280;55182;56.864;60.554;2023-12-22T01:25:12;74875.03;;;-143.60;81.66
68329;BME280;55182;56.864;60.554;2023-12-22T01:27:38;74873.03;;;-143.60;80.85
68329;BME280;55182;56.864;60.554;2023-12-22T01:30:03;74871.03;;;-143.60;80.59
68329;BME280;55182;56.864;60.554;2023-12-22T01:32:29;74873.03;;;-143.60;80.41
68329;BME280;55182;56.864;60.554;2023-12-22T01:34:55;74860.97;;;-143.60;79.99
68329;BME280;55182;56.864;60.554;2023-12-22T01:37:20;74860.97;;;-143.60;80.07
68329;BME280;55182;56.864;60.554;2023-12-22T01:39:46;74865.00;;;-143.60;79.94
68329;BME280;55182;56.864;60.554;2023-12-22T01:42:11;74873.03;;;-143.60;79.78
68329;BME280;55182;56.864;60.554;2023-12-22T01:44:37;74869.03;;;-143.60;79.52
68329;BME280;55182;56.864;60.554;2023-12-22T01:47:02;74871.03;;;-143.60;79.59
68329;BME280;55182;56.864;60.554;2023-12-22T01:49:27;74865.00;;;-143.60;79.50
68329;BME280;55182;56.864;60.554;2023-12-22T01:51:53;74879.06;;;-143.60;79.93
68329;BME280;55182;56.864;60.554;2023-12-22T01:54:18;74873.03;;;-143.60;79.39
68329;BME280;55182;56.864;60.554;2023-12-22T01:56:44;74873.03;;;-143.60;79.39
68329;BME280;55182;56.864;60.554;2023-12-22T01:59:10;74879.06;;;-143.60;79.31
68329;BME280;55182;56.864;60.554;2023-12-22T02:01:36;74885.09;;;-143.60;79.56
68329;BME280;55182;56.864;60.554;2023-12-22T02:04:02;74889.09;;;-143.60;79.33
68329;BME280;55182;56.864;60.554;2023-12-22T02:06:29;74893.13;;;-143.60;79.30
68329;BME280;55182;56.864;60.554;2023-12-22T02:08:55;74897.16;;;-143.60;78.72
68329;BME280;55182;56.864;60.554;2023-12-22T02:11:22;74895.13;;;-143.60;79.16
68329;BME280;55182;56.864;60.554;2023-12-22T02:13:47;74905.19;;;-143.60;79.21
68329;BME280;55182;56.864;60.554;2023-12-22T02:18:41;74901.16;;;-143.60;79.52
68329;BME280;55182;56.864;60.554;2023-12-22T02:21:08;74909.19;;;-143.60;79.19
68329;BME280;55182;56.864;60.554;2023-12-22T02:23:34;74911.22;;;-143.60;79.15
68329;BME280;55182;56.864;60.554;2023-12-22T02:26:05;74913.22;;;-143.60;79.42
68329;BME280;55182;56.864;60.554;2023-12-22T02:28:31;74925.28;;;-143.60;79.41
68329;BME280;55182;56.864;60.554;2023-12-22T02:31:08;74923.25;;;-143.60;79.30
68329;BME280;55182;56.864;60.554;2023-12-22T02:33:35;74925.28;;;-143.60;79.38
68329;BME280;55182;56.864;60.554;2023-12-22T02:36:02;74927.28;;;-143.60;79.29
68329;BME280;55182;56.864;60.554;2023-12-22T02:38:28;74929.28;;;-143.60;79.48
68329;BME280;55182;56.864;60.554;2023-12-22T02:40:54;74931.28;;;-143.60;79.57
68329;BME280;55182;56.864;60.554;2023-12-22T02:43:20;74937.31;;;-143.60;79.66
68329;BME280;55182;56.864;60.554;2023-12-22T02:45:49;74935.31;;;-143.60;79.52
68329;BME280;55182;56.864;60.554;2023-12-22T02:48:15;74939.31;;;-143.60;79.66
68329;BME280;55182;56.864;60.554;2023-12-22T02:50:40;74935.31;;;-143.60;79.54
68329;BME280;55182;56.864;60.554;2023-12-22T02:53:06;74935.31;;;-143.60;80.04
68329;BME280;55182;56.864;60.554;2023-12-22T02:55:31;74943.34;;;-143.60;80.17
68329;BME280;55182;56.864;60.554;2023-12-22T02:57:57;74941.34;;;-143.60;80.13
68329;BME280;55182;56.864;60.554;2023-12-22T03:00:22;74941.34;;;-143.60;80.02
68329;BME280;55182;56.864;60.554;2023-12-22T03:02:48;74941.34;;;-143.60;79.89
68329;BME280;55182;56.864;60.554;2023-12-22T03:05:13;74941.34;;;-143.60;80.15
68329;BME280;55182;56.864;60.554;2023-12-22T03:07:39;74945.34;;;-143.60;80.25
68329;BME280;55182;56.864;60.554;2023-12-22T03:10:05;74945.34;;;-143.60;79.96
68329;BME280;55182;56.864;60.554;2023-12-22T03:12:30;74949.38;;;-143.60;80.17
68329;BME280;55182;56.864;60.554;2023-12-22T03:14:56;74953.41;;;-143.60;79.99
68329;BME280;55182;56.864;60.554;2023-12-22T03:17:21;74951.38;;;-143.60;79.96
68329;BME280;55182;56.864;60.554;2023-12-22T03:19:47;74957.41;;;-143.60;79.96
68329;BME280;55182;56.864;60.554;2023-12-22T03:22:13;74951.38;;;-143.60;79.66
68329;BME280;55182;56.864;60.554;2023-12-22T03:24:38;74949.38;;;-143.60;79.81
68329;BME280;55182;56.864;60.554;2023-12-22T03:27:04;74957.41;;;-143.60;79.92
68329;BME280;55182;56.864;60.554;2023-12-22T03:29:29;74945.34;;;-143.60;79.81
68329;BME280;55182;56.864;60.554;2023-12-22T03:31:55;74945.34;;;-143.60;79.94
68329;BME280;55182;56.864;60.554;2023-12-22T03:34:20;74949.38;;;-143.60;79.65
68329;BME280;55182;56.864;60.554;2023-12-22T03:36:46;74945.34;;;-143.60;79.85
68329;BME280;55182;56.864;60.554;2023-12-22T03:39:11;74941.34;;;-143.60;79.47
68329;BME280;55182;56.864;60.554;2023-12-22T03:41:37;74957.41;;;-143.60;80.02
68329;BME280;55182;56.864;60.554;2023-12-22T03:44:02;74949.38;;;-143.60;79.68
68329;BME280;55182;56.864;60.554;2023-12-22T03:46:28;74961.44;;;-143.60;80.04
68329;BME280;55182;56.864;60.554;2023-12-22T03:48:53;74961.44;;;-143.60;79.86
68329;BME280;55182;56.864;60.554;2023-12-22T03:51:18;74963.44;;;-143.60;80.05
68329;BME280;55182;56.864;60.554;2023-12-22T03:53:44;74961.44;;;-143.60;80.07
68329;BME280;55182;56.864;60.554;2023-12-22T03:56:09;74969.47;;;-143.60;80.02
68329;BME280;55182;56.864;60.554;2023-12-22T03:58:38;74969.47;;;-143.60;79.91
68329;BME280;55182;56.864;60.554;2023-12-22T04:01:04;74959.41;;;-143.60;79.91
68329;BME280;55182;56.864;60.554;2023-12-22T04:03:29;74967.44;;;-143.60;79.64
68329;BME280;55182;56.864;60.554;2023-12-22T04:05:55;74969.47;;;-143.60;79.71
68329;BME280;55182;56.864;60.554;2023-12-22T04:08:21;74969.47;;;-143.60;79.95
68329;BME280;55182;56.864;60.554;2023-12-22T04:10:46;74967.44;;;-143.60;79.80
68329;BME280;55182;56.864;60.554;2023-12-22T04:13:12;74965.44;;;-143.60;79.19
68329;BME280;55182;56.864;60.554;2023-12-22T04:15:38;74965.44;;;-143.60;78.95
68329;BME280;55182;56.864;60.554;2023-12-22T04:18:03;74963.44;;;-143.60;79.20
68329;BME280;55182;56.864;60.554;2023-12-22T04:20:29;74961.44;;;-143.60;79.03
68329;BME280;55182;56.864;60.554;2023-12-22T04:22:54;74959.41;;;-143.60;79.10
68329;BME280;55182;56.864;60.554;2023-12-22T04:25:20;74959.41;;;-143.60;78.57
68329;BME280;55182;56.864;60.554;2023-12-22T04:27:45;74963.44;;;-143.60;78.89
68329;BME280;55182;56.864;60.554;2023-12-22T04:30:11;74965.44;;;-143.60;79.21
68329;BME280;55182;56.864;60.554;2023-12-22T04:32:36;74973.47;;;-143.60;79.14
68329;BME280;55182;56.864;60.554;2023-12-22T04:35:02;74977.50;;;-143.60;79.32
68329;BME280;55182;56.864;60.554;2023-12-22T04:37:27;74977.50;;;-143.60;79.11
68329;BME280;55182;56.864;60.554;2023-12-22T04:39:53;74975.50;;;-143.60;78.77
68329;BME280;55182;56.864;60.554;2023-12-22T04:42:18;74981.50;;;-143.60;79.09
68329;BME280;55182;56.864;60.554;2023-12-22T04:44:44;74981.50;;;-143.60;78.61
68329;BME280;55182;56.864;60.554;2023-12-22T04:47:09;74977.50;;;-143.60;78.72
68329;BME280;55182;56.864;60.554;2023-12-22T04:49:34;74985.53;;;-143.60;79.00
68329;BME280;55182;56.864;60.554;2023-12-22T04:52:00;74991.56;;;-143.60;78.83
68329;BME280;55182;56.864;60.554;2023-12-22T04:54:25;74991.56;;;-143.60;78.69
68329;BME280;55182;56.864;60.554;2023-12-22T04:56:51;74999.59;;;-143.60;78.98
68329;BME280;55182;56.864;60.554;2023-12-22T04:59:16;75001.59;;;-143.60;78.98
68329;BME280;55182;56.864;60.554;2023-12-22T05:01:42;75001.59;;;-143.60;79.36
68329;BME280;55182;56.864;60.554;2023-12-22T05:04:07;74995.56;;;-143.60;79.29
68329;BME280;55182;56.864;60.554;2023-12-22T05:06:33;75001.59;;;-143.60;79.12
68329;BME280;55182;56.864;60.554;2023-12-22T05:08:58;74999.59;;;-143.60;78.97
68329;BME280;55182;56.864;60.554;2023-12-22T05:11:24;74997.59;;;-143.60;79.05
68329;BME280;55182;56.864;60.554;2023-12-22T05:13:49;74997.59;;;-143.60;78.80
68329;BME280;55182;56.864;60.554;2023-12-22T05:16:15;74987.53;;;-143.60;78.62
68329;BME280;55182;56.864;60.554;2023-12-22T05:18:41;74989.56;;;-143.60;78.81
68329;BME280;55182;56.864;60.554;2023-12-22T05:21:06;74993.56;;;-143.60;78.69
68329;BME280;55182;56.864;60.554;2023-12-22T05:23:32;74993.56;;;-143.60;78.89
68329;BME280;55182;56.864;60.554;2023-12-22T05:25:57;74997.59;;;-143.60;78.77
68329;BME280;55182;56.864;60.554;2023-12-22T05:28:23;74989.56;;;-143.60;78.86
68329;BME280;55182;56.864;60.554;2023-12-22T05:30:49;74993.56;;;-143.60;78.92
68329;BME280;55182;56.864;60.554;2023-12-22T05:33:14;74991.56;;;-143.60;79.09
68329;BME280;55182;56.864;60.554;2023-12-22T05:35:40;74993.56;;;-143.60;78.89
68329;BME280;55182;56.864;60.554;2023-12-22T05:38:05;74987.53;;;-143.60;78.82
68329;BME280;55182;56.864;60.554;2023-12-22T05:40:31;74987.53;;;-143.60;78.98
68329;BME280;55182;56.864;60.554;2023-12-22T05:42:56;74991.56;;;-143.60;78.91
68329;BME280;55182;56.864;60.554;2023-12-22T05:45:22;74985.53;;;-143.60;78.94
68329;BME280;55182;56.864;60.554;2023-12-22T05:47:47;74997.59;;;-143.60;78.91
68329;BME280;55182;56.864;60.554;2023-12-22T05:50:13;74997.59;;;-143.60;78.88
68329;BME280;55182;56.864;60.554;2023-12-22T05:52:39;74983.53;;;-143.60;78.79
68329;BME280;55182;56.864;60.554;2023-12-22T05:55:05;74989.56;;;-143.60;78.93
68329;BME280;55182;56.864;60.554;2023-12-22T05:57:30;74987.53;;;-143.60;78.34
68329;BME280;55182;56.864;60.554;2023-12-22T05:59:56;74983.53;;;-143.60;78.58
68329;BME280;55182;56.864;60.554;2023-12-22T06:02:21;74979.50;;;-143.60;78.52
68329;BME280;55182;56.864;60.554;2023-12-22T06:04:47;74985.53;;;-143.60;78.09
68329;BME280;55182;56.864;60.554;2023-12-22T06:07:13;74977.50;;;-143.60;78.12
68329;BME280;55182;56.864;60.554;2023-12-22T06:09:38;74977.50;;;-143.60;78.02
68329;BME280;55182;56.864;60.554;2023-12-22T06:12:04;74973.47;;;-143.60;77.83
68329;BME280;55182;56.864;60.554;2023-12-22T06:14:30;74973.47;;;-143.60;77.84
68329;BME280;55182;56.864;60.554;2023-12-22T06:16:55;74957.41;;;-143.60;77.65
68329;BME280;55182;56.864;60.554;2023-12-22T06:19:20;74961.44;;;-143.60;77.93
68329;BME280;55182;56.864;60.554;2023-12-22T06:21:46;74965.44;;;-143.60;77.94
68329;BME280;55182;56.864;60.554;2023-12-22T06:24:11;74963.44;;;-143.60;77.62
68329;BME280;55182;56.864;60.554;2023-12-22T06:26:37;74961.44;;;-143.60;77.33
68329;BME280;55182;56.864;60.554;2023-12-22T06:29:02;74961.44;;;-143.60;77.42
68329;BME280;55182;56.864;60.554;2023-12-22T06:31:28;74967.44;;;-143.60;77.53
68329;BME280;55182;56.864;60.554;2023-12-22T06:33:53;74967.44;;;-143.60;77.24
68329;BME280;55182;56.864;60.554;2023-12-22T06:36:22;74961.44;;;-143.60;77.47
68329;BME280;55182;56.864;60.554;2023-12-22T06:38:48;74977.50;;;-143.60;77.81
68329;BME280;55182;56.864;60.554;2023-12-22T06:41:26;74975.50;;;-143.60;77.56
68329;BME280;55182;56.864;60.554;2023-12-22T06:43:52;74979.50;;;-143.60;77.46
68329;BME280;55182;56.864;60.554;2023-12-22T06:46:18;74977.50;;;-143.60;77.49
68329;BME280;55182;56.864;60.554;2023-12-22T06:48:44;74985.53;;;-143.60;77.24
68329;BME280;55182;56.864;60.554;2023-12-22T06:51:31;74975.50;;;-143.60;77.34
68329;BME280;55182;56.864;60.554;2023-12-22T06:53:55;74973.47;;;-143.60;77.39
68329;BME280;55182;56.864;60.554;2023-12-22T06:56:24;74973.47;;;-143.60;77.34
68329;BME280;55182;56.864;60.554;2023-12-22T06:58:51;74969.47;;;-143.60;77.05
68329;BME280;55182;56.864;60.554;2023-12-22T07:03:45;74959.41;;;-143.60;76.82
68329;BME280;55182;56.864;60.554;2023-12-22T07:06:11;74955.41;;;-143.60;76.72
68329;BME280;55182;56.864;60.554;2023-12-22T07:08:37;74953.41;;;-143.60;76.61
68329;BME280;55182;56.864;60.554;2023-12-22T07:11:02;74953.41;;;-143.60;76.74
68329;BME280;55182;56.864;60.554;2023-12-22T07:13:27;74961.44;;;-143.60;76.93
68329;BME280;55182;56.864;60.554;2023-12-22T07:15:53;74955.41;;;-143.60;77.11
68329;BME280;55182;56.864;60.554;2023-12-22T07:18:19;74961.44;;;-143.60;76.98
68329;BME280;55182;56.864;60.554;2023-12-22T07:20:44;74957.41;;;-143.60;77.44
68329;BME280;55182;56.864;60.554;2023-12-22T07:23:10;74961.44;;;-143.60;77.06
68329;BME280;55182;56.864;60.554;2023-12-22T07:25:36;74945.34;;;-143.60;76.80
68329;BME280;55182;56.864;60.554;2023-12-22T07:28:02;74935.31;;;-143.60;77.00
68329;BME280;55182;56.864;60.554;2023-12-22T07:30:27;74941.34;;;-143.60;77.08
68329;BME280;55182;56.864;60.554;2023-12-22T07:32:53;74941.34;;;-143.60;76.80
68329;BME280;55182;56.864;60.554;2023-12-22T07:35:18;74945.34;;;-143.60;77.14
68329;BME280;55182;56.864;60.554;2023-12-22T07:37:44;74947.38;;;-143.60;77.47
68329;BME280;55182;56.864;60.554;2023-12-22T07:40:09;74957.41;;;-143.60;77.56
68329;BME280;55182;56.864;60.554;2023-12-22T07:42:35;74949.38;;;-143.60;77.08
68329;BME280;55182;56.864;60.554;2023-12-22T07:45:00;74947.38;;;-143.60;77.19
68329;BME280;55182;56.864;60.554;2023-12-22T07:47:26;74941.34;;;-143.60;77.35
68329;BME280;55182;56.864;60.554;2023-12-22T07:49:51;74943.34;;;-143.60;77.29
68329;BME280;55182;56.864;60.554;2023-12-22T07:52:16;74937.31;;;-143.60;77.14
68329;BME280;55182;56.864;60.554;2023-12-22T07:54:42;74943.34;;;-143.60;77.68
68329;BME280;55182;56.864;60.554;2023-12-22T07:57:07;74947.38;;;-143.60;77.45
68329;BME280;55182;56.864;60.554;2023-12-22T07:59:33;74953.41;;;-143.60;77.17
68329;BME280;55182;56.864;60.554;2023-12-22T08:01:58;74961.44;;;-143.60;77.67
68329;BME280;55182;56.864;60.554;2023-12-22T08:04:24;74953.41;;;-143.60;77.48
68329;BME280;55182;56.864;60.554;2023-12-22T08:06:49;74959.41;;;-143.60;77.45
68329;BME280;55182;56.864;60.554;2023-12-22T08:09:15;74961.44;;;-143.60;77.84
68329;BME280;55182;56.864;60.554;2023-12-22T08:11:40;74961.44;;;-143.60;77.34
68329;BME280;55182;56.864;60.554;2023-12-22T08:14:05;74961.44;;;-143.60;77.58
68329;BME280;55182;56.864;60.554;2023-12-22T08:16:31;74957.41;;;-143.60;77.43
68329;BME280;55182;56.864;60.554;2023-12-22T08:18:56;74959.41;;;-143.60;77.70
68329;BME280;55182;56.864;60.554;2023-12-22T08:21:22;74961.44;;;-143.60;77.79
68329;BME280;55182;56.864;60.554;2023-12-22T08:23:47;74955.41;;;-143.60;77.64
68329;BME280;55182;56.864;60.554;2023-12-22T08:26:12;74955.41;;;-143.60;77.55
68329;BME280;55182;56.864;60.554;2023-12-22T08:28:38;74959.41;;;-143.60;77.45
68329;BME280;55182;56.864;60.554;2023-12-22T08:31:03;74959.41;;;-143.60;77.68
68329;BME280;55182;56.864;60.554;2023-12-22T08:33:29;74957.41;;;-143.60;77.50
68329;BME280;55182;56.864;60.554;2023-12-22T08:35:54;74953.41;;;-143.60;78.02
68329;BME280;55182;56.864;60.554;2023-12-22T08:38:20;74961.44;;;-143.60;77.70
68329;BME280;55182;56.864;60.554;2023-12-22T08:40:45;74953.41;;;-143.60;77.44
68329;BME280;55182;56.864;60.554;2023-12-22T08:43:11;74945.34;;;-143.60;77.76
68329;BME280;55182;56.864;60.554;2023-12-22T08:45:36;74949.38;;;-143.60;77.44
68329;BME280;55182;56.864;60.554;2023-12-22T08:48:02;74957.41;;;-143.60;77.69
68329;BME280;55182;56.864;60.554;2023-12-22T08:50:27;74955.41;;;-143.60;78.06
68329;BME280;55182;56.864;60.554;2023-12-22T08:52:53;74953.41;;;-143.60;77.75
68329;BME280;55182;56.864;60.554;2023-12-22T08:55:19;74941.34;;;-143.60;77.81
68329;BME280;55182;56.864;60.554;2023-12-22T08:57:44;74953.41;;;-143.60;77.75
68329;BME280;55182;56.864;60.554;2023-12-22T09:00:10;74953.41;;;-143.60;77.86
68329;BME280;55182;56.864;60.554;2023-12-22T09:02:35;74949.38;;;-143.60;77.86
68329;BME280;55182;56.864;60.554;2023-12-22T09:05:01;74945.34;;;-143.60;77.81
68329;BME280;55182;56.864;60.554;2023-12-22T09:07:26;74947.38;;;-143.60;77.87
68329;BME280;55182;56.864;60.554;2023-12-22T09:09:52;74941.34;;;-143.60;77.63
68329;BME280;55182;56.864;60.554;2023-12-22T09:12:17;74933.31;;;-143.60;77.19
68329;BME280;55182;56.864;60.554;2023-12-22T09:14:43;74931.28;;;-143.60;77.52
68329;BME280;55182;56.864;60.554;2023-12-22T09:17:08;74937.31;;;-143.60;77.77
68329;BME280;55182;56.864;60.554;2023-12-22T09:19:34;74939.31;;;-143.60;77.65
68329;BME280;55182;56.864;60.554;2023-12-22T09:21:59;74931.28;;;-143.60;77.92
68329;BME280;55182;56.864;60.554;2023-12-22T09:24:25;74925.28;;;-143.60;77.60
68329;BME280;55182;56.864;60.554;2023-12-22T09:26:50;74923.25;;;-143.60;77.20
68329;BME280;55182;56.864;60.554;2023-12-22T09:29:16;74923.25;;;-143.60;77.29
68329;BME280;55182;56.864;60.554;2023-12-22T09:31:41;74927.28;;;-143.60;77.42
68329;BME280;55182;56.864;60.554;2023-12-22T09:34:07;74943.34;;;-143.60;77.84
68329;BME280;55182;56.864;60.554;2023-12-22T09:36:32;74953.41;;;-143.60;77.97
68329;BME280;55182;56.864;60.554;2023-12-22T09:38:58;74965.44;;;-143.60;78.42
68329;BME280;55182;56.864;60.554;2023-12-22T09:41:23;74969.47;;;-143.60;78.88
68329;BME280;55182;56.864;60.554;2023-12-22T09:43:49;74985.53;;;-143.60;79.06
68329;BME280;55182;56.864;60.554;2023-12-22T09:46:14;74993.56;;;-143.60;79.32
68329;BME280;55182;56.864;60.554;2023-12-22T09:48:40;74993.56;;;-143.60;79.50
68329;BME280;55182;56.864;60.554;2023-12-22T09:51:07;75001.59;;;-143.60;80.22
68329;BME280;55182;56.864;60.554;2023-12-22T09:53:32;75005.63;;;-143.60;80.06
68329;BME280;55182;56.864;60.554;2023-12-22T09:55:58;75009.63;;;-143.60;80.17
68329;BME280;55182;56.864;60.554;2023-12-22T09:58:24;75003.63;;;-143.60;80.08
68329;BME280;55182;56.864;60.554;2023-12-22T10:00:50;75023.69;;;-143.60;80.39
68329;BME280;55182;56.864;60.554;2023-12-22T10:03:16;75027.72;;;-143.60;80.64
68329;BME280;55182;56.864;60.554;2023-12-22T10:05:41;75037.75;;;-143.60;80.41
68329;BME280;55182;56.864;60.554;2023-12-22T10:08:08;75039.78;;;-143.60;80.47
68329;BME280;55182;56.864;60.554;2023-12-22T10:10:33;75045.81;;;-143.60;80.60
68329;BME280;55182;56.864;60.554;2023-12-22T10:12:59;75055.84;;;-143.60;80.30
68329;BME280;55182;56.864;60.554;2023-12-22T10:15:25;75057.84;;;-143.60;80.98
68329;BME280;55182;56.864;60.554;2023-12-22T10:17:51;75065.88;;;-143.60;80.95
68329;BME280;55182;56.864;60.554;2023-12-22T10:20:17;75065.88;;;-143.60;81.50
68329;BME280;55182;56.864;60.554;2023-12-22T10:22:42;75069.91;;;-143.60;81.29
68329;BME280;55182;56.864;60.554;2023-12-22T10:25:08;75069.91;;;-143.60;80.92
68329;BME280;55182;56.864;60.554;2023-12-22T10:27:35;75077.94;;;-143.60;81.00
68329;BME280;55182;56.864;60.554;2023-12-22T10:30:00;75085.97;;;-143.60;81.19
68329;BME280;55182;56.864;60.554;2023-12-22T10:32:26;75081.97;;;-143.60;81.34
68329;BME280;55182;56.864;60.554;2023-12-22T10:34:51;75073.94;;;-143.60;81.30
68329;BME280;55182;56.864;60.554;2023-12-22T10:37:17;75075.94;;;-143.60;80.82
68329;BME280;55182;56.864;60.554;2023-12-22T10:39:42;75071.91;;;-143.60;80.69
68329;BME280;55182;56.864;60.554;2023-12-22T10:42:08;75059.88;;;-143.60;80.17
68329;BME280;55182;56.864;60.554;2023-12-22T10:44:34;75051.81;;;-143.60;80.21
68329;BME280;55182;56.864;60.554;2023-12-22T10:47:00;75039.78;;;-143.60;79.83
68329;BME280;55182;56.864;60.554;2023-12-22T10:49:26;75049.81;;;-143.60;79.14
68329;BME280;55182;56.864;60.554;2023-12-22T10:51:52;75043.78;;;-143.60;78.82
68329;BME280;55182;56.864;60.554;2023-12-22T10:54:17;75033.75;;;-143.60;78.93
68329;BME280;55182;56.864;60.554;2023-12-22T10:56:43;75037.75;;;-143.60;78.96
68329;BME280;55182;56.864;60.554;2023-12-22T10:59:09;75035.75;;;-143.60;78.43
68329;BME280;55182;56.864;60.554;2023-12-22T11:01:35;75037.75;;;-143.60;78.53
68329;BME280;55182;56.864;60.554;2023-12-22T11:04:01;75033.75;;;-143.60;78.58
68329;BME280;55182;56.864;60.554;2023-12-22T11:06:29;75041.78;;;-143.60;78.18
68329;BME280;55182;56.864;60.554;2023-12-22T11:08:56;75051.81;;;-143.60;78.59
68329;BME280;55182;56.864;60.554;2023-12-22T11:11:33;75051.81;;;-143.60;78.07
68329;BME280;55182;56.864;60.554;2023-12-22T11:14:02;75047.81;;;-143.60;78.30
68329;BME280;55182;56.864;60.554;2023-12-22T11:16:28;75057.84;;;-143.60;78.21
68329;BME280;55182;56.864;60.554;2023-12-22T11:18:54;75053.84;;;-143.60;78.33
68329;BME280;55182;56.864;60.554;2023-12-22T11:21:23;75049.81;;;-143.60;78.35
68329;BME280;55182;56.864;60.554;2023-12-22T11:23:50;75049.81;;;-143.60;78.29
68329;BME280;55182;56.864;60.554;2023-12-22T11:26:16;75053.84;;;-143.60;78.19
68329;BME280;55182;56.864;60.554;2023-12-22T11:28:42;75057.84;;;-143.60;78.25
68329;BME280;55182;56.864;60.554;2023-12-22T11:31:07;75057.84;;;-143.60;78.04
68329;BME280;55182;56.864;60.554;2023-12-22T11:33:35;75057.84;;;-143.60;77.90
68329;BME280;55182;56.864;60.554;2023-12-22T11:36:01;75057.84;;;-143.60;77.82
68329;BME280;55182;56.864;60.554;2023-12-22T11:38:28;75059.88;;;-143.60;77.98
68329;BME280;55182;56.864;60.554;2023-12-22T11:40:54;75065.88;;;-143.60;78.25
68329;BME280;55182;56.864;60.554;2023-12-22T11:43:20;75065.88;;;-143.60;78.17
68329;BME280;55182;56.864;60.554;2023-12-22T11:45:48;75069.91;;;-143.60;78.05
68329;BME280;55182;56.864;60.554;2023-12-22T11:48:13;75077.94;;;-143.60;78.20
68329;BME280;55182;56.864;60.554;2023-12-22T11:50:39;75088.00;;;-143.60;78.48
68329;BME280;55182;56.864;60.554;2023-12-22T11:53:20;75102.06;;;-143.60;78.80
68329;BME280;55182;56.864;60.554;2023-12-22T11:56:02;75120.13;;;-143.60;78.88
68329;BME280;55182;56.864;60.554;2023-12-22T12:01:00;75134.19;;;-143.60;80.10
68329;BME280;55182;56.864;60.554;2023-12-22T12:03:26;75146.25;;;-143.60;80.68
68329;BME280;55182;56.864;60.554;2023-12-22T12:06:08;75164.34;;;-143.60;80.25
68329;BME280;55182;56.864;60.554;2023-12-22T12:08:34;75170.34;;;-143.60;80.95
68329;BME280;55182;56.864;60.554;2023-12-22T12:11:00;75176.38;;;-143.60;81.46
68329;BME280;55182;56.864;60.554;2023-12-22T12:13:25;75184.41;;;-143.60;81.40
68329;BME280;55182;56.864;60.554;2023-12-22T12:15:52;75188.44;;;-143.60;81.50
68329;BME280;55182;56.864;60.554;2023-12-22T12:18:21;75198.47;;;-143.60;81.65
68329;BME280;55182;56.864;60.554;2023-12-22T12:20:47;75200.50;;;-143.60;82.09
68329;BME280;55182;56.864;60.554;2023-12-22T12:23:14;75198.47;;;-143.60;81.95
68329;BME280;55182;56.864;60.554;2023-12-22T12:25:40;75204.50;;;-143.60;81.81
68329;BME280;55182;56.864;60.554;2023-12-22T12:28:06;75222.59;;;-143.60;82.08
68329;BME280;55182;56.864;60.554;2023-12-22T12:30:32;75234.66;;;-143.60;82.57